createdAt,value
2022-10-06T00:00:40.347Z,12.94
2022-10-06T00:03:07.860Z,12.83
2022-10-06T00:05:36.012Z,12.83
2022-10-06T00:08:03.721Z,12.82
2022-10-06T00:10:31.820Z,12.79
2022-10-06T00:12:59.474Z,12.75
2022-10-06T00:15:29.528Z,12.84
2022-10-06T00:17:59.134Z,12.79
2022-10-06T00:20:27.884Z,12.75
2022-10-06T00:22:56.957Z,12.75
2022-10-06T00:25:25.426Z,12.73
2022-10-06T00:27:53.959Z,12.70
2022-10-06T00:30:23.773Z,12.69
2022-10-06T00:32:53.061Z,12.70
2022-10-06T00:35:22.702Z,12.64
2022-10-06T00:37:50.383Z,12.65
2022-10-06T00:40:18.632Z,12.64
2022-10-06T00:42:51.979Z,12.61
2022-10-06T00:45:22.815Z,12.56
2022-10-06T00:47:50.331Z,12.62
2022-10-06T00:50:17.915Z,12.55
2022-10-06T00:52:46.993Z,12.47
2022-10-06T00:55:15.083Z,12.45
2022-10-06T00:57:42.760Z,12.45
2022-10-06T01:00:11.295Z,12.41
2022-10-06T01:02:42.540Z,12.42
2022-10-06T01:05:13.079Z,12.40
2022-10-06T01:07:40.601Z,12.32
2022-10-06T01:10:10.111Z,12.47
2022-10-06T01:12:37.626Z,12.63
2022-10-06T01:15:06.143Z,12.71
2022-10-06T01:17:37.086Z,12.83
2022-10-06T01:20:08.819Z,12.83
2022-10-06T01:22:39.400Z,12.90
2022-10-06T01:25:09.060Z,12.90
2022-10-06T01:27:37.313Z,12.80
2022-10-06T01:30:06.663Z,12.73
2022-10-06T01:32:35.921Z,12.69
2022-10-06T01:35:03.515Z,12.70
2022-10-06T01:37:31.030Z,12.62
2022-10-06T01:39:59.935Z,12.55
2022-10-06T01:42:31.677Z,12.32
2022-10-06T01:44:59.315Z,12.21
2022-10-06T01:47:26.828Z,12.15
2022-10-06T01:49:54.447Z,12.13
2022-10-06T01:52:22.395Z,12.14
2022-10-06T01:54:49.930Z,12.18
2022-10-06T01:57:18.823Z,12.14
2022-10-06T01:59:46.359Z,12.08
2022-10-06T02:02:13.883Z,12.17
2022-10-06T02:04:41.420Z,12.10
2022-10-06T02:07:09.135Z,12.09
2022-10-06T02:09:36.703Z,12.07
2022-10-06T02:12:04.830Z,12.10
2022-10-06T02:14:34.710Z,12.09
2022-10-06T02:17:02.385Z,12.01
2022-10-06T02:19:29.927Z,11.94
2022-10-06T02:21:58.215Z,11.99
2022-10-06T02:24:26.005Z,11.84
2022-10-06T02:26:54.089Z,11.90
2022-10-06T02:29:21.988Z,11.91
2022-10-06T02:31:51.400Z,11.83
2022-10-06T02:34:18.912Z,11.90
2022-10-06T02:36:46.431Z,11.85
2022-10-06T02:39:13.932Z,11.73
2022-10-06T02:41:41.448Z,11.76
2022-10-06T02:44:08.984Z,11.72
2022-10-06T02:46:37.188Z,11.75
2022-10-06T02:49:06.093Z,11.70
2022-10-06T02:51:34.313Z,11.63
2022-10-06T02:54:01.815Z,11.57
2022-10-06T02:56:29.388Z,11.67
2022-10-06T02:58:56.916Z,11.64
2022-10-06T03:01:26.812Z,11.54
2022-10-06T03:03:55.015Z,11.50
2022-10-06T03:06:25.820Z,11.46
2022-10-06T03:08:54.989Z,11.53
2022-10-06T03:11:24.731Z,11.49
2022-10-06T03:13:52.915Z,11.52
2022-10-06T03:16:22.929Z,11.46
2022-10-06T03:18:52.193Z,11.40
2022-10-06T03:21:20.176Z,11.35
2022-10-06T03:23:50.962Z,11.31
2022-10-06T03:26:20.495Z,11.28
2022-10-06T03:28:48.393Z,11.28
2022-10-06T03:31:17.826Z,11.17
2022-10-06T03:33:45.564Z,11.20
2022-10-06T03:36:15.191Z,11.19
2022-10-06T03:38:42.859Z,11.14
2022-10-06T03:41:13.741Z,11.11
2022-10-06T03:43:43.013Z,11.11
2022-10-06T03:46:12.371Z,11.09
2022-10-06T03:48:40.359Z,11.11
2022-10-06T03:51:09.346Z,11.02
2022-10-06T03:53:37.053Z,11.01
2022-10-06T03:56:06.212Z,10.93
2022-10-06T03:58:36.815Z,10.94
2022-10-06T04:01:07.593Z,10.84
2022-10-06T04:03:35.570Z,10.86
2022-10-06T04:06:06.627Z,10.90
2022-10-06T04:08:35.276Z,10.83
2022-10-06T04:11:07.187Z,10.76
2022-10-06T04:13:36.370Z,10.67
2022-10-06T04:16:11.364Z,10.70
2022-10-06T04:18:39.103Z,10.68
2022-10-06T04:21:07.005Z,10.68
2022-10-06T04:23:36.409Z,10.55
2022-10-06T04:26:06.357Z,10.56
2022-10-06T04:28:34.620Z,10.57
2022-10-06T04:31:04.497Z,10.52
2022-10-06T04:33:34.170Z,10.49
2022-10-06T04:36:03.480Z,10.56
2022-10-06T04:38:33.651Z,10.52
2022-10-06T04:41:05.636Z,10.49
2022-10-06T04:43:33.151Z,10.44
2022-10-06T04:46:13.091Z,10.33
2022-10-06T04:48:52.860Z,10.45
2022-10-06T04:51:20.971Z,10.46
2022-10-06T04:53:49.328Z,10.36
2022-10-06T04:56:18.648Z,10.37
2022-10-06T04:58:47.805Z,10.32
2022-10-06T05:01:16.589Z,10.32
2022-10-06T05:03:44.435Z,10.36
2022-10-06T05:06:14.943Z,10.24
2022-10-06T05:08:43.178Z,10.26
2022-10-06T05:11:15.191Z,10.28
2022-10-06T05:13:45.988Z,10.23
2022-10-06T05:16:15.904Z,10.23
2022-10-06T05:18:43.581Z,10.22
2022-10-06T05:21:14.340Z,10.26
2022-10-06T05:23:43.562Z,10.18
2022-10-06T05:26:12.276Z,10.23
2022-10-06T05:28:40.464Z,10.19
2022-10-06T05:31:11.364Z,10.17
2022-10-06T05:33:39.460Z,10.13
2022-10-06T05:36:08.712Z,10.06
2022-10-06T05:38:37.685Z,10.06
2022-10-06T05:41:07.169Z,10.05
2022-10-06T05:43:35.400Z,10.03
2022-10-06T05:46:05.752Z,10.01
2022-10-06T05:48:33.914Z,9.97
2022-10-06T05:51:02.762Z,9.95
2022-10-06T05:53:31.806Z,9.91
2022-10-06T05:56:09.135Z,9.96
2022-10-06T05:58:38.298Z,9.94
2022-10-06T06:01:13.600Z,10.04
2022-10-06T06:03:43.200Z,9.97
2022-10-06T06:06:17.891Z,10.01
2022-10-06T06:08:45.862Z,9.99
2022-10-06T06:11:14.861Z,9.96
2022-10-06T06:13:42.385Z,10.03
2022-10-06T06:16:14.730Z,9.99
2022-10-06T06:18:42.491Z,10.00
2022-10-06T06:21:11.132Z,10.02
2022-10-06T06:23:40.314Z,10.07
2022-10-06T06:26:09.169Z,10.07
2022-10-06T06:28:38.295Z,10.14
2022-10-06T06:31:08.079Z,10.16
2022-10-06T06:33:37.552Z,10.22
2022-10-06T06:36:05.417Z,10.25
2022-10-06T06:38:33.283Z,10.22
2022-10-06T06:41:01.121Z,10.32
2022-10-06T06:43:29.315Z,10.35
2022-10-06T06:46:04.348Z,10.42
2022-10-06T06:48:32.486Z,10.39
2022-10-06T06:51:00.303Z,10.44
2022-10-06T06:53:27.864Z,10.44
2022-10-06T06:55:55.386Z,10.63
2022-10-06T06:58:22.907Z,10.60
2022-10-06T07:00:50.715Z,10.69
2022-10-06T07:03:52.147Z,10.69
2022-10-06T07:06:11.591Z,10.77
2022-10-06T07:08:42.580Z,10.80
2022-10-06T07:11:15.065Z,10.87
2022-10-06T07:13:43.097Z,10.94
2022-10-06T07:16:29.653Z,10.99
2022-10-06T07:19:18.256Z,11.02
2022-10-06T07:22:08.690Z,11.18
2022-10-06T07:24:53.927Z,11.30
2022-10-06T07:27:21.470Z,11.34
2022-10-06T07:29:54.372Z,11.37
2022-10-06T07:32:22.503Z,11.39
2022-10-06T07:34:52.025Z,11.49
2022-10-06T07:37:20.145Z,11.52
2022-10-06T07:39:49.434Z,11.56
2022-10-06T07:42:17.446Z,11.70
2022-10-06T07:45:05.792Z,11.81
2022-10-06T07:47:33.476Z,11.79
2022-10-06T07:50:02.417Z,11.87
2022-10-06T07:52:29.948Z,11.90
2022-10-06T07:54:58.474Z,12.02
2022-10-06T07:57:26.781Z,11.96
2022-10-06T07:59:57.997Z,12.11
2022-10-06T08:02:31.463Z,12.18
2022-10-06T08:05:03.821Z,12.14
2022-10-06T08:07:31.338Z,12.13
2022-10-06T08:09:58.904Z,12.33
2022-10-06T08:12:37.668Z,12.47
2022-10-06T08:15:07.600Z,12.33
2022-10-06T08:17:36.481Z,12.42
2022-10-06T08:20:06.571Z,12.60
2022-10-06T08:22:34.281Z,12.54
2022-10-06T08:25:08.467Z,12.61
2022-10-06T08:27:37.463Z,12.59
2022-10-06T08:30:06.435Z,12.63
2022-10-06T08:32:34.161Z,12.92
2022-10-06T08:35:01.715Z,12.86
2022-10-06T08:37:30.748Z,12.86
2022-10-06T08:39:58.494Z,12.93
2022-10-06T08:42:31.894Z,12.91
2022-10-06T08:45:01.721Z,12.94
2022-10-06T08:47:33.451Z,13.05
2022-10-06T08:50:01.443Z,13.28
2022-10-06T08:52:46.120Z,13.20
2022-10-06T08:55:24.277Z,13.51
2022-10-06T08:58:02.979Z,13.43
2022-10-06T09:00:33.058Z,13.42
2022-10-06T09:03:01.264Z,13.50
2022-10-06T09:05:30.671Z,13.54
2022-10-06T09:08:16.161Z,13.47
2022-10-06T09:10:45.533Z,13.50
2022-10-06T09:13:18.397Z,13.71
2022-10-06T09:15:51.093Z,13.87
2022-10-06T09:18:22.122Z,13.80
2022-10-06T09:20:53.812Z,14.11
2022-10-06T09:23:42.816Z,14.26
2022-10-06T09:26:13.818Z,14.54
2022-10-06T09:28:41.791Z,14.76
2022-10-06T09:31:21.078Z,14.82
2022-10-06T09:33:49.972Z,14.77
2022-10-06T09:36:17.599Z,14.80
2022-10-06T09:38:53.834Z,14.75
2022-10-06T09:41:24.275Z,14.63
2022-10-06T09:43:55.150Z,14.83
2022-10-06T09:46:28.945Z,14.65
2022-10-06T09:49:08.308Z,14.87
2022-10-06T09:51:36.537Z,14.91
2022-10-06T09:54:14.366Z,15.33
2022-10-06T09:56:43.293Z,15.03
2022-10-06T09:59:20.710Z,15.23
2022-10-06T10:01:55.247Z,15.25
2022-10-06T10:04:24.836Z,15.23
2022-10-06T10:06:53.314Z,14.48
2022-10-06T10:09:31.309Z,14.78
2022-10-06T10:12:27.636Z,14.68
2022-10-06T10:14:57.817Z,15.10
2022-10-06T10:17:35.780Z,14.52
2022-10-06T10:20:04.677Z,14.87
2022-10-06T10:22:36.253Z,14.79
2022-10-06T10:25:14.382Z,15.49
2022-10-06T10:27:49.425Z,15.49
2022-10-06T10:30:17.163Z,15.25
2022-10-06T10:32:52.761Z,15.56
2022-10-06T10:35:26.171Z,15.39
2022-10-06T10:37:59.245Z,15.25
2022-10-06T10:40:38.759Z,14.85
2022-10-06T10:43:15.684Z,14.91
2022-10-06T10:45:47.154Z,14.73
2022-10-06T10:48:17.809Z,15.48
2022-10-06T10:50:51.208Z,16.08
2022-10-06T10:53:23.872Z,16.36
2022-10-06T10:55:53.960Z,17.17
2022-10-06T10:58:24.285Z,17.05
2022-10-06T11:00:56.068Z,17.26
2022-10-06T11:03:23.672Z,16.91
2022-10-06T11:06:23.482Z,16.49
2022-10-06T11:08:56.544Z,16.38
2022-10-06T11:11:39.241Z,16.31
2022-10-06T11:14:10.953Z,16.68
2022-10-06T11:16:41.797Z,15.81
2022-10-06T11:19:25.917Z,15.78
2022-10-06T11:21:58.993Z,15.49
2022-10-06T11:24:32.761Z,15.43
2022-10-06T11:27:19.260Z,15.79
2022-10-06T11:29:55.482Z,16.26
2022-10-06T11:32:27.091Z,16.31
2022-10-06T11:34:55.033Z,16.57
2022-10-06T11:37:34.536Z,16.77
2022-10-06T11:40:18.033Z,16.96
2022-10-06T11:42:53.734Z,16.73
2022-10-06T11:45:24.969Z,16.77
2022-10-06T11:48:10.669Z,16.39
2022-10-06T11:50:39.331Z,16.11
2022-10-06T11:53:07.483Z,16.55
2022-10-06T11:55:35.062Z,16.79
2022-10-06T11:58:37.441Z,16.39
2022-10-06T12:01:02.094Z,16.67
2022-10-06T12:04:06.203Z,16.82
2022-10-06T12:06:57.345Z,16.59
2022-10-06T12:09:53.019Z,16.03
2022-10-06T12:13:06.159Z,16.03
2022-10-06T12:17:05.675Z,16.23
2022-10-06T12:18:49.315Z,16.69
2022-10-06T12:21:26.232Z,16.30
2022-10-06T12:24:02.042Z,16.95
2022-10-06T12:26:42.241Z,16.72
2022-10-06T12:29:23.128Z,16.55
2022-10-06T12:32:00.705Z,16.80
2022-10-06T12:34:47.112Z,17.04
2022-10-06T12:37:22.188Z,16.69
2022-10-06T12:39:49.724Z,16.75
2022-10-06T12:42:20.781Z,16.35
2022-10-06T12:44:51.106Z,16.56
2022-10-06T12:47:24.828Z,16.84
2022-10-06T12:49:54.669Z,16.75
2022-10-06T12:52:34.969Z,17.02
2022-10-06T12:55:18.324Z,17.43
2022-10-06T12:57:47.163Z,17.44
2022-10-06T13:03:01.060Z,17.34
2022-10-06T13:05:29.128Z,17.49
2022-10-06T13:07:58.007Z,17.35
2022-10-06T13:10:25.739Z,17.14
2022-10-06T13:12:55.335Z,16.58
2022-10-06T13:15:24.933Z,16.82
2022-10-06T13:17:54.257Z,17.41
2022-10-06T13:20:40.993Z,17.83
2022-10-06T13:23:24.333Z,17.98
2022-10-06T13:25:57.621Z,17.59
2022-10-06T13:28:28.534Z,17.56
2022-10-06T13:30:58.328Z,17.81
2022-10-06T13:33:28.585Z,17.40
2022-10-06T13:35:58.853Z,17.52
2022-10-06T13:38:26.432Z,17.73
2022-10-06T13:41:07.843Z,17.23
2022-10-06T13:43:41.162Z,17.66
2022-10-06T13:46:10.953Z,17.78
2022-10-06T13:48:45.380Z,17.78
2022-10-06T13:51:18.780Z,17.92
2022-10-06T13:53:47.039Z,17.71
2022-10-06T13:58:57.795Z,17.46
2022-10-06T14:01:34.585Z,17.57
2022-10-06T14:04:14.910Z,17.32
2022-10-06T14:06:50.581Z,17.51
2022-10-06T14:09:22.619Z,17.54
2022-10-06T14:11:50.541Z,17.72
2022-10-06T14:14:18.836Z,17.72
2022-10-06T14:16:51.790Z,17.42
2022-10-06T14:19:37.059Z,17.60
2022-10-06T14:22:07.194Z,17.20
2022-10-06T14:24:37.366Z,17.79
2022-10-06T14:27:07.343Z,17.44
2022-10-06T14:29:37.710Z,17.32
2022-10-06T14:32:14.056Z,17.16
2022-10-06T14:34:42.096Z,17.15
2022-10-06T14:37:15.079Z,16.84
2022-10-06T14:39:42.961Z,16.80
2022-10-06T14:42:10.809Z,16.95
2022-10-06T14:44:38.719Z,16.98
2022-10-06T14:47:09.311Z,16.65
2022-10-06T14:49:37.898Z,16.43
2022-10-06T14:52:09.044Z,16.63
2022-10-06T14:54:38.634Z,16.64
2022-10-06T14:57:06.751Z,16.52
2022-10-06T14:59:34.526Z,16.51
2022-10-06T15:02:03.072Z,16.62
2022-10-06T15:04:31.409Z,16.70
2022-10-06T15:07:16.907Z,17.00
2022-10-06T15:09:46.045Z,17.02
2022-10-06T15:12:13.949Z,16.39
2022-10-06T15:14:41.717Z,16.30
2022-10-06T15:17:09.449Z,16.11
2022-10-06T15:19:37.763Z,16.22
2022-10-06T15:22:06.258Z,16.52
2022-10-06T15:24:33.995Z,16.54
2022-10-06T15:27:20.139Z,16.43
2022-10-06T15:29:50.287Z,16.56
2022-10-06T15:32:18.054Z,16.72
2022-10-06T15:34:46.225Z,16.70
2022-10-06T15:37:13.975Z,16.69
2022-10-06T15:39:43.186Z,16.55
2022-10-06T15:42:12.524Z,16.59
2022-10-06T15:44:40.300Z,16.33
2022-10-06T15:47:08.502Z,16.23
2022-10-06T15:49:40.274Z,16.22
2022-10-06T15:52:08.608Z,16.05
2022-10-06T15:54:37.832Z,16.07
2022-10-06T15:57:08.365Z,15.98
2022-10-06T15:59:39.988Z,15.87
2022-10-06T16:02:09.840Z,15.62
2022-10-06T16:04:54.984Z,15.48
2022-10-06T16:07:22.584Z,15.51
2022-10-06T16:09:51.131Z,15.31
2022-10-06T16:12:21.216Z,15.32
2022-10-06T16:14:50.309Z,15.19
2022-10-06T16:17:18.460Z,15.13
2022-10-06T16:19:46.862Z,15.07
2022-10-06T16:22:17.928Z,15.06
2022-10-06T16:24:45.541Z,15.34
2022-10-06T16:27:15.382Z,15.22
2022-10-06T16:29:44.321Z,14.99
2022-10-06T16:32:13.354Z,14.80
2022-10-06T16:34:41.087Z,14.75
2022-10-06T16:37:08.830Z,14.78
2022-10-06T16:39:36.558Z,14.74
2022-10-06T16:42:04.365Z,14.48
2022-10-06T16:44:32.118Z,14.56
2022-10-06T16:47:00.118Z,14.50
2022-10-06T16:49:29.397Z,14.37
2022-10-06T16:51:57.214Z,14.23
2022-10-06T16:54:24.933Z,14.12
2022-10-06T16:56:54.734Z,14.05
2022-10-06T16:59:25.878Z,14.01
2022-10-06T17:01:53.631Z,13.88
2022-10-06T17:04:22.366Z,13.79
2022-10-06T17:06:52.853Z,13.67
2022-10-06T17:09:21.643Z,13.60
2022-10-06T17:11:51.017Z,13.47
2022-10-06T17:14:19.563Z,13.45
2022-10-06T17:16:48.874Z,13.42
2022-10-06T17:19:18.040Z,13.38
2022-10-06T17:21:48.709Z,13.25
2022-10-06T17:24:19.951Z,13.32
2022-10-06T17:26:49.346Z,13.25
2022-10-06T17:29:18.676Z,13.17
2022-10-06T17:31:46.636Z,13.14
2022-10-06T17:34:20.387Z,13.14
2022-10-06T17:36:50.614Z,13.12
2022-10-06T17:39:20.741Z,13.04
2022-10-06T17:41:49.450Z,13.03
2022-10-06T17:44:22.568Z,13.07
2022-10-06T17:46:51.951Z,12.98
2022-10-06T17:49:21.224Z,12.91
2022-10-06T17:51:49.455Z,12.77
2022-10-06T17:54:20.702Z,12.64
2022-10-06T17:56:49.495Z,12.64
2022-10-06T17:59:18.798Z,12.53
2022-10-06T18:01:46.462Z,12.54
2022-10-06T18:04:16.393Z,12.45
2022-10-06T18:06:44.892Z,12.39
2022-10-06T18:09:13.051Z,12.35
2022-10-06T18:11:43.354Z,12.28
2022-10-06T18:14:12.444Z,12.20
2022-10-06T18:16:41.379Z,12.13
2022-10-06T18:19:10.593Z,12.09
2022-10-06T18:21:39.568Z,11.98
2022-10-06T18:24:08.917Z,11.91
2022-10-06T18:26:38.293Z,11.94
2022-10-06T18:29:07.619Z,11.85
2022-10-06T18:31:35.932Z,11.80
2022-10-06T18:36:51.712Z,11.60
2022-10-06T18:39:19.323Z,11.62
2022-10-06T18:41:50.811Z,11.60
2022-10-06T18:44:39.703Z,11.54
2022-10-06T18:47:33.323Z,11.41
2022-10-06T18:50:00.852Z,11.40
2022-10-06T18:52:28.366Z,11.28
2022-10-06T18:54:55.905Z,11.22
2022-10-06T18:57:27.723Z,11.16
2022-10-06T18:59:57.331Z,11.04
2022-10-06T19:02:26.235Z,10.91
2022-10-06T19:04:53.860Z,10.84
2022-10-06T19:07:21.396Z,10.86
2022-10-06T19:09:49.990Z,10.85
2022-10-06T19:12:17.531Z,10.87
2022-10-06T19:14:47.698Z,10.83
2022-10-06T19:17:17.028Z,10.83
2022-10-06T19:19:46.111Z,10.79
2022-10-06T19:22:14.669Z,10.82
2022-10-06T19:24:43.458Z,10.84
2022-10-06T19:27:12.816Z,10.69
2022-10-06T19:29:45.312Z,10.64
2022-10-06T19:32:17.317Z,10.51
2022-10-06T19:34:45.422Z,10.40
2022-10-06T19:37:12.983Z,10.43
2022-10-06T19:39:43.276Z,10.46
2022-10-06T19:42:28.911Z,10.49
2022-10-06T19:44:56.504Z,10.52
2022-10-06T19:47:25.555Z,10.45
2022-10-06T19:49:57.829Z,10.42
2022-10-06T19:52:26.555Z,10.42
2022-10-06T19:54:54.086Z,10.43
2022-10-06T19:57:21.692Z,10.41
2022-10-06T19:59:50.715Z,10.40
2022-10-06T20:02:18.246Z,10.42
2022-10-06T20:04:47.299Z,10.44
2022-10-06T20:07:14.797Z,10.42
2022-10-06T20:09:42.383Z,10.39
2022-10-06T20:12:09.930Z,10.35
2022-10-06T20:14:37.696Z,10.43
2022-10-06T20:17:05.982Z,10.47
2022-10-06T20:19:34.295Z,10.53
2022-10-06T20:22:03.156Z,10.59
2022-10-06T20:24:31.730Z,10.55
2022-10-06T20:26:59.275Z,10.58
2022-10-06T20:29:28.024Z,10.55
2022-10-06T20:31:58.669Z,10.55
2022-10-06T20:34:31.742Z,10.47
2022-10-06T20:37:01.803Z,10.48
2022-10-06T20:39:49.677Z,10.46
2022-10-06T20:42:17.733Z,10.48
2022-10-06T20:44:45.270Z,10.55
2022-10-06T20:47:13.220Z,10.56
2022-10-06T20:49:42.369Z,10.47
2022-10-06T20:52:10.588Z,10.48
2022-10-06T20:54:39.452Z,10.45
2022-10-06T20:57:09.224Z,10.45
2022-10-06T20:59:36.912Z,10.47
2022-10-06T21:02:05.029Z,10.48
2022-10-06T21:04:32.935Z,10.51
2022-10-06T21:07:01.519Z,10.47
2022-10-06T21:09:29.226Z,10.52
2022-10-06T21:11:58.207Z,10.57
2022-10-06T21:14:25.995Z,10.63
2022-10-06T21:16:54.179Z,10.66
2022-10-06T21:19:21.787Z,10.64
2022-10-06T21:21:51.697Z,10.58
2022-10-06T21:24:19.370Z,10.55
2022-10-06T21:26:47.313Z,10.61
2022-10-06T21:29:16.522Z,10.53
2022-10-06T21:31:44.321Z,10.48
2022-10-06T21:34:12.011Z,10.48
2022-10-06T21:36:39.572Z,10.47
2022-10-06T21:39:07.888Z,10.47
2022-10-06T21:41:38.618Z,10.46
2022-10-06T21:44:07.979Z,10.45
2022-10-06T21:46:38.469Z,10.47
2022-10-06T21:49:07.771Z,10.47
2022-10-06T21:51:35.338Z,10.53
2022-10-06T21:54:03.095Z,10.51
2022-10-06T21:56:32.621Z,10.58
2022-10-06T21:59:00.818Z,10.59
2022-10-06T22:01:29.855Z,10.51
2022-10-06T22:04:00.131Z,10.53
2022-10-06T22:06:28.174Z,10.55
2022-10-06T22:08:56.527Z,10.50
2022-10-06T22:11:26.145Z,10.45
2022-10-06T22:13:55.317Z,10.44
2022-10-06T22:16:24.319Z,10.49
2022-10-06T22:18:52.277Z,10.47
2022-10-06T22:21:23.221Z,10.47
2022-10-06T22:23:55.579Z,10.43
2022-10-06T22:26:23.715Z,10.55
2022-10-06T22:28:52.566Z,10.52
2022-10-06T22:31:24.937Z,10.56
2022-10-06T22:33:55.264Z,10.48
2022-10-06T22:36:24.582Z,10.51
2022-10-06T22:38:52.301Z,10.44
2022-10-06T22:41:20.197Z,10.40
2022-10-06T22:43:47.802Z,10.38
2022-10-06T22:46:16.052Z,10.49
2022-10-06T22:48:43.589Z,10.34
2022-10-06T22:51:11.116Z,10.32
2022-10-06T22:53:40.002Z,10.16
2022-10-06T22:56:07.738Z,10.25
2022-10-06T22:58:36.126Z,10.19
2022-10-06T23:01:10.176Z,10.12
2022-10-06T23:03:37.930Z,10.04
2022-10-06T23:06:06.753Z,9.99
2022-10-06T23:08:35.489Z,10.04
2022-10-06T23:11:09.660Z,9.96
2022-10-06T23:13:37.418Z,9.90
2022-10-06T23:16:07.815Z,9.94
2022-10-06T23:18:37.578Z,9.96
2022-10-06T23:21:05.800Z,9.85
2022-10-06T23:23:33.482Z,9.84
2022-10-06T23:26:07.141Z,9.92
2022-10-06T23:28:34.970Z,9.84
2022-10-06T23:31:04.162Z,9.77
2022-10-06T23:33:32.107Z,9.77
2022-10-06T23:35:59.909Z,9.77
2022-10-06T23:38:27.858Z,9.82
2022-10-06T23:40:56.107Z,9.93
2022-10-06T23:43:25.357Z,9.95
2022-10-06T23:45:52.990Z,9.91
2022-10-06T23:48:20.655Z,9.92
2022-10-06T23:50:58.893Z,9.94
2022-10-06T23:53:26.987Z,9.84
2022-10-06T23:55:54.612Z,9.93
2022-10-06T23:58:22.670Z,9.82
